Time;durP1;ratioP1;P1;durP2;ratioP2;P2;SDS_P1;SDS_P2;PMS_P1;PMS_P2;Temp;Humidity;BMP_temperature;BMP_pressure;BME280_temperature;BME280_humidity;BME280_pressure;Samples;Min_cycle;Max_cycle;Signal;HPM_P1;HPM_P2
2023/05/16 00:02:04;;;;;;;54.90;38.47;;;;;;;15.46;100.00;148961.44;5072664;28;20200;-55
2023/05/16 00:04:32;;;;;;;53.30;37.30;;;;;;;15.39;100.00;148942.50;5072660;28;20188;-55
2023/05/16 00:06:59;;;;;;;54.00;37.60;;;;;;;15.47;100.00;148962.69;5072522;28;20214;-56
2023/05/16 00:09:28;;;;;;;54.43;39.80;;;;;;;15.39;100.00;148943.78;5072356;28;20200;-55
2023/05/16 00:11:55;;;;;;;56.83;38.57;;;;;;;15.43;100.00;148952.63;5072506;28;20235;-56
2023/05/16 00:14:25;;;;;;;52.90;38.37;;;;;;;15.44;100.00;148955.16;5072226;28;20255;-55
2023/05/16 00:16:52;;;;;;;57.87;39.47;;;;;;;15.34;100.00;148929.91;5072656;28;20200;-56
2023/05/16 00:19:19;;;;;;;57.70;40.03;;;;;;;15.35;100.00;148932.44;5072240;28;20200;-55
2023/05/16 00:21:49;;;;;;;57.30;38.10;;;;;;;15.30;100.00;148921.06;5072581;28;20286;-55
2023/05/16 00:24:16;;;;;;;58.50;40.20;;;;;;;15.22;100.00;148902.16;5072536;28;20195;-58
2023/05/16 00:26:47;;;;;;;58.40;39.43;;;;;;;15.19;100.00;148894.56;5072579;28;20200;-56
2023/05/16 00:29:14;;;;;;;60.03;39.70;;;;;;;15.17;100.00;148889.50;5072225;28;20250;-55
2023/05/16 00:31:41;;;;;;;57.37;38.77;;;;;;;15.13;100.00;148879.41;5071947;28;20640;-55
2023/05/16 00:34:08;;;;;;;54.17;38.93;;;;;;;15.11;100.00;148873.13;5071781;28;20199;-55
2023/05/16 00:36:35;;;;;;;54.03;38.07;;;;;;;15.14;100.00;148881.94;5071939;28;20204;-55
2023/05/16 00:39:03;;;;;;;60.90;39.50;;;;;;;15.14;100.00;148880.66;5072183;28;20200;-53
2023/05/16 00:41:30;;;;;;;57.80;39.67;;;;;;;15.11;100.00;148874.38;5071975;28;20631;-53
2023/05/16 00:43:59;;;;;;;56.23;39.30;;;;;;;15.08;100.00;148866.81;5071871;28;20291;-52
2023/05/16 00:46:26;;;;;;;56.77;39.17;;;;;;;15.07;100.00;148864.28;5071682;28;20232;-53
2023/05/16 00:48:53;;;;;;;63.37;40.13;;;;;;;15.06;100.00;148860.50;5071991;28;20589;-52
2023/05/16 00:51:20;;;;;;;54.50;39.10;;;;;;;14.96;100.00;148835.25;5071252;28;20192;-53
2023/05/16 00:53:48;;;;;;;60.13;39.73;;;;;;;15.05;100.00;148859.22;5071806;28;20196;-56
2023/05/16 00:56:15;;;;;;;56.90;37.87;;;;;;;15.01;100.00;148849.13;5071859;28;20255;-56
2023/05/16 00:58:42;;;;;;;53.60;38.87;;;;;;;15.05;100.00;148857.97;5071308;28;20236;-56
2023/05/16 01:01:11;;;;;;;55.00;37.63;;;;;;;15.05;100.00;148859.22;5071430;28;20219;-55
2023/05/16 01:03:41;;;;;;;61.40;40.60;;;;;;;15.01;100.00;148849.13;5071362;28;20195;-56
2023/05/16 01:06:09;;;;;;;56.00;39.07;;;;;;;14.99;100.00;148842.84;5071322;28;20231;-55
2023/05/16 01:08:36;;;;;;;59.27;39.93;;;;;;;14.90;100.00;148821.34;5071379;28;20199;-55
2023/05/16 01:11:12;;;;;;;64.07;40.30;;;;;;;14.90;100.00;148821.34;5071220;28;20231;-52
2023/05/16 01:13:47;;;;;;;56.93;38.80;;;;;;;14.89;100.00;148820.16;5071203;28;20238;-55
2023/05/16 01:16:25;;;;;;;57.50;38.27;;;;;;;14.90;100.00;148821.34;5071621;28;20219;-55
2023/05/16 01:19:00;;;;;;;54.17;38.27;;;;;;;14.85;100.00;148808.78;5071402;28;20636;-55
2023/05/16 01:21:42;;;;;;;59.70;41.23;;;;;;;14.91;100.00;148823.88;5070739;28;20195;-55
2023/05/16 01:24:15;;;;;;;58.27;40.23;;;;;;;14.86;100.00;148811.31;5071372;28;20210;-55
2023/05/16 01:26:44;;;;;;;62.63;39.00;;;;;;;14.97;100.00;148839.06;5071513;28;20230;-55
2023/05/16 01:29:12;;;;;;;60.70;39.70;;;;;;;14.86;100.00;148811.31;5071220;28;20199;-55
2023/05/16 01:31:39;;;;;;;59.57;39.20;;;;;;;14.89;100.00;148820.16;5071075;28;20230;-55
2023/05/16 01:34:06;;;;;;;59.27;39.60;;;;;;;14.84;100.00;148806.25;5070975;28;20312;-53
2023/05/16 01:36:44;;;;;;;60.13;41.37;;;;;;;14.79;100.00;148793.59;5070542;28;20234;-52
2023/05/16 01:39:17;;;;;;;60.17;39.13;;;;;;;14.73;100.00;148778.50;5071080;28;20234;-53
2023/05/16 01:41:55;;;;;;;62.77;40.60;;;;;;;14.70;100.00;148772.19;5071015;28;20196;-53
2023/05/16 01:44:30;;;;;;;63.13;39.13;;;;;;;14.73;100.00;148779.75;5070948;28;20192;-52
2023/05/16 01:47:00;;;;;;;60.10;39.80;;;;;;;14.76;100.00;148786.06;5070746;28;20645;-51
2023/05/16 01:49:35;;;;;;;55.80;38.13;;;;;;;14.78;100.00;148791.13;5070667;28;20203;-51
2023/05/16 01:52:11;;;;;;;58.77;39.23;;;;;;;14.82;100.00;148801.19;5071056;28;20207;-55
2023/05/16 01:54:40;;;;;;;61.13;39.60;;;;;;;14.79;100.00;148794.88;5070591;28;20703;-54
2023/05/16 01:57:10;;;;;;;60.33;39.17;;;;;;;14.82;100.00;148802.44;5070413;28;20246;-55
2023/05/16 01:59:39;;;;;;;60.13;39.57;;;;;;;14.76;100.00;148787.34;5070597;28;20200;-55
2023/05/16 02:02:08;;;;;;;58.73;40.47;;;;;;;14.69;100.00;148768.38;5069838;28;20206;-55
2023/05/16 02:04:35;;;;;;;59.77;39.70;;;;;;;14.84;100.00;148807.50;5070565;28;20601;-55
2023/05/16 02:07:02;;;;;;;65.77;41.33;;;;;;;14.89;100.00;148818.88;5070488;28;20203;-55
2023/05/16 02:09:29;;;;;;;66.20;41.87;;;;;;;14.94;100.00;148831.47;5070358;28;20200;-55
2023/05/16 02:11:56;;;;;;;60.20;40.20;;;;;;;14.84;100.00;148807.50;5070470;28;20556;-55
2023/05/16 02:14:25;;;;;;;57.90;40.70;;;;;;;14.78;100.00;148791.13;5070723;28;20192;-55
2023/05/16 02:16:52;;;;;;;58.67;41.23;;;;;;;14.75;100.00;148784.81;5070842;28;20671;-55
2023/05/16 02:19:19;;;;;;;68.47;41.80;;;;;;;14.64;100.00;148757.06;5070554;28;20204;-55
2023/05/16 02:21:46;;;;;;;66.20;39.70;;;;;;;14.65;100.00;148759.59;5070070;28;20695;-52
2023/05/16 02:24:13;;;;;;;62.93;40.27;;;;;;;14.63;100.00;148754.53;5069903;28;20192;-52
2023/05/16 02:26:40;;;;;;;63.83;41.87;;;;;;;14.57;100.00;148738.09;5069723;28;20210;-54
2023/05/16 02:29:07;;;;;;;64.70;40.67;;;;;;;14.51;100.00;148724.25;5069736;28;20200;-55
2023/05/16 02:31:35;;;;;;;66.80;42.37;;;;;;;14.48;100.00;148716.69;5069749;28;20202;-55
2023/05/16 02:34:02;;;;;;;69.70;43.80;;;;;;;14.47;100.00;148714.16;5069775;28;20217;-55
2023/05/16 02:36:29;;;;;;;66.13;42.63;;;;;;;14.40;100.00;148697.78;5069812;28;20224;-52
2023/05/16 02:38:56;;;;;;;66.13;43.07;;;;;;;14.40;100.00;148696.53;5069824;28;20203;-52
2023/05/16 02:41:23;;;;;;;63.57;43.13;;;;;;;14.39;100.00;148695.25;5069975;28;20198;-56
2023/05/16 02:43:50;;;;;;;71.97;42.60;;;;;;;14.35;100.00;148685.09;5069679;28;20199;-52
2023/05/16 02:46:24;;;;;;;76.77;42.83;;;;;;;14.36;100.00;148687.63;5060381;28;20193;-55
2023/05/16 02:48:52;;;;;;;62.93;41.90;;;;;;;14.39;100.00;148695.25;5049715;28;20250;-52
2023/05/16 02:51:21;;;;;;;67.27;43.53;;;;;;;14.42;100.00;148702.84;5049171;28;20200;-54
2023/05/16 02:53:48;;;;;;;67.23;41.93;;;;;;;14.44;100.00;148706.63;5049360;28;20204;-51
2023/05/16 02:56:15;;;;;;;68.97;41.73;;;;;;;14.43;100.00;148704.09;5049285;28;20224;-52
2023/05/16 02:58:42;;;;;;;65.23;43.07;;;;;;;14.39;100.00;148693.94;5049165;28;20720;-52
2023/05/16 03:01:09;;;;;;;65.33;42.97;;;;;;;14.29;100.00;148669.97;5049641;28;20192;-52
2023/05/16 03:03:37;;;;;;;74.03;42.17;;;;;;;14.44;100.00;148706.63;5049570;28;20588;-55
2023/05/16 03:06:06;;;;;;;65.60;41.30;;;;;;;14.53;100.00;148729.31;5049207;28;20196;-55
2023/05/16 03:08:33;;;;;;;71.77;43.00;;;;;;;14.49;100.00;148719.19;5049624;28;20601;-52
2023/05/16 03:11:01;;;;;;;71.33;42.43;;;;;;;14.48;100.00;148716.69;5049486;28;20585;-52
2023/05/16 03:13:29;;;;;;;78.23;44.83;;;;;;;14.40;100.00;148697.78;5051391;28;20204;-53
2023/05/16 03:15:56;;;;;;;75.37;45.83;;;;;;;14.35;100.00;148683.84;5053267;28;20770;-52
2023/05/16 03:18:23;;;;;;;77.97;46.90;;;;;;;14.35;100.00;148683.84;5053145;28;20589;-52
2023/05/16 03:20:51;;;;;;;77.80;45.80;;;;;;;14.34;100.00;148681.31;5053368;28;20200;-55
2023/05/16 03:23:20;;;;;;;84.23;47.30;;;;;;;14.35;100.00;148685.09;5052994;28;20284;-55
2023/05/16 03:25:47;;;;;;;76.00;45.97;;;;;;;14.33;100.00;148680.09;5053075;28;20563;-55
2023/05/16 03:28:14;;;;;;;83.30;49.73;;;;;;;14.35;100.00;148683.84;5052979;28;20216;-55
2023/05/16 03:30:41;;;;;;;75.70;47.67;;;;;;;14.39;100.00;148693.94;5052727;28;20207;-55
2023/05/16 03:33:08;;;;;;;78.87;45.37;;;;;;;14.43;100.00;148705.34;5052663;28;20196;-55
2023/05/16 03:35:36;;;;;;;67.47;44.47;;;;;;;14.50;100.00;148721.72;5051686;28;20213;-54
2023/05/16 03:38:03;;;;;;;68.43;42.30;;;;;;;14.53;100.00;148730.56;5046717;28;20197;-54
2023/05/16 03:40:32;;;;;;;67.27;43.97;;;;;;;14.58;100.00;148741.91;5045299;28;20211;-52
2023/05/16 03:42:59;;;;;;;73.47;44.97;;;;;;;14.61;100.00;148748.22;5048210;28;20212;-54
2023/05/16 03:45:26;;;;;;;72.97;45.97;;;;;;;14.64;100.00;148755.78;5051849;28;20610;-55
2023/05/16 03:47:52;;;;;;;77.80;47.23;;;;;;;14.68;100.00;148765.84;5051817;28;20211;-55
2023/05/16 03:50:19;;;;;;;74.67;46.53;;;;;;;14.69;100.00;148769.66;5051389;28;20284;-52
2023/05/16 03:52:46;;;;;;;77.40;45.83;;;;;;;14.66;100.00;148760.84;5051702;28;20275;-51
2023/05/16 03:55:14;;;;;;;71.67;46.33;;;;;;;14.49;100.00;148720.47;5052353;28;20668;-55
2023/05/16 03:57:44;;;;;;;73.87;45.57;;;;;;;14.57;100.00;148738.09;5051833;28;20239;-53
2023/05/16 04:00:12;;;;;;;74.83;46.13;;;;;;;14.55;100.00;148733.09;5051902;28;20199;-51
2023/05/16 04:02:40;;;;;;;72.13;45.30;;;;;;;14.62;100.00;148752.00;5051935;28;20679;-52
2023/05/16 04:05:09;;;;;;;74.87;45.67;;;;;;;14.74;100.00;148781.03;5052036;28;20193;-51
2023/05/16 04:07:36;;;;;;;76.90;46.47;;;;;;;14.79;100.00;148793.59;5052397;28;20200;-51
2023/05/16 04:10:03;;;;;;;73.57;46.80;;;;;;;14.90;100.00;148822.63;5051988;28;20218;-51
2023/05/16 04:12:30;;;;;;;76.43;45.77;;;;;;;15.10;100.00;148870.59;5037780;28;20217;-54
2023/05/16 04:14:58;;;;;;;75.20;46.97;;;;;;;15.30;100.00;148919.81;5031779;28;20226;-54
2023/05/16 04:17:25;;;;;;;76.07;45.50;;;;;;;15.47;100.00;148963.94;5031580;28;20221;-55
2023/05/16 04:19:52;;;;;;;85.67;46.90;;;;;;;15.69;100.00;149017.06;5044907;28;20303;-51
2023/05/16 04:22:21;;;;;;;71.30;44.47;;;;;;;15.65;100.00;149008.19;5049181;28;20706;-51
2023/05/16 04:24:48;;;;;;;65.60;42.83;;;;;;;15.91;100.00;149073.81;5048674;28;20234;-51
2023/05/16 04:27:15;;;;;;;74.53;43.10;;;;;;;16.01;100.00;149096.59;5050091;28;20220;-52
2023/05/16 04:29:42;;;;;;;70.20;43.23;;;;;;;16.01;100.00;149096.59;5050297;28;20251;-51
2023/05/16 04:32:11;;;;;;;69.43;43.57;;;;;;;16.19;100.00;149142.03;5050443;28;20224;-52
2023/05/16 04:34:38;;;;;;;69.80;44.00;;;;;;;16.36;100.00;149183.72;5050474;28;20302;-49
2023/05/16 04:37:06;;;;;;;62.47;43.33;;;;;;;16.47;100.00;149211.50;5050714;28;20714;-50
2023/05/16 04:39:33;;;;;;;64.47;43.80;;;;;;;16.52;100.00;149224.09;5051084;28;20217;-52
2023/05/16 04:42:00;;;;;;;72.83;43.70;;;;;;;16.54;100.00;149230.44;5049949;28;20311;-55
2023/05/16 04:44:27;;;;;;;53.57;36.90;;;;;;;16.47;100.00;149211.50;5048252;28;20216;-55
2023/05/16 04:46:54;;;;;;;51.13;35.77;;;;;;;16.43;100.00;149202.66;5050872;28;20672;-54
2023/05/16 04:49:23;;;;;;;45.80;33.43;;;;;;;16.40;100.00;149195.06;5052220;28;20216;-55
2023/05/16 04:51:50;;;;;;;46.83;33.60;;;;;;;16.37;100.00;149187.47;5046926;28;20572;-55
2023/05/16 04:54:17;;;;;;;42.47;31.93;;;;;;;16.43;100.00;149202.66;5049706;28;20196;-56
2023/05/16 04:56:43;;;;;;;43.37;28.73;;;;;;;16.36;100.00;149183.72;5050873;28;20315;-55
2023/05/16 04:59:10;;;;;;;41.83;30.97;;;;;;;16.39;100.00;149192.53;5051353;28;20594;-52
2023/05/16 05:01:38;;;;;;;39.47;29.30;;;;;;;16.43;100.00;149202.66;5051210;28;20193;-55
2023/05/16 05:04:05;;;;;;;45.20;30.43;;;;;;;16.47;100.00;149211.50;5051247;28;20200;-52
2023/05/16 05:06:33;;;;;;;40.77;28.80;;;;;;;16.77;100.00;149286.06;5050826;28;20193;-55
2023/05/16 05:09:00;;;;;;;36.97;27.67;;;;;;;17.17;100.00;149385.84;5050722;28;20220;-53
2023/05/16 05:11:27;;;;;;;40.83;27.00;;;;;;;17.23;100.00;149402.31;5050636;28;20206;-51
2023/05/16 05:13:54;;;;;;;35.47;26.70;;;;;;;17.24;100.00;149403.56;5050962;28;20291;-55
2023/05/16 05:16:21;;;;;;;38.50;29.00;;;;;;;17.15;100.00;149380.84;5050940;28;20243;-55
2023/05/16 05:18:48;;;;;;;41.20;28.43;;;;;;;17.08;100.00;149364.38;5050825;28;20211;-52
2023/05/16 05:21:15;;;;;;;39.57;27.57;;;;;;;16.99;100.00;149342.91;5050773;28;20197;-52
2023/05/16 05:23:43;;;;;;;39.97;28.60;;;;;;;16.98;100.00;149339.13;5050536;28;20196;-52
2023/05/16 05:26:10;;;;;;;36.47;27.33;;;;;;;16.99;100.00;149341.66;5050791;28;20577;-56
2023/05/16 05:28:37;;;;;;;38.27;27.00;;;;;;;17.06;100.00;149359.31;5050971;28;20204;-55
2023/05/16 05:31:05;;;;;;;31.33;25.30;;;;;;;17.03;100.00;149351.78;5050026;28;20231;-55
2023/05/16 05:33:32;;;;;;;36.60;24.10;;;;;;;17.14;100.00;149379.56;5050560;28;20200;-52
2023/05/16 05:35:59;;;;;;;27.60;22.87;;;;;;;17.26;100.00;149408.63;5049930;28;20224;-54
2023/05/16 05:38:26;;;;;;;30.70;22.77;;;;;;;17.27;100.00;149411.13;5049872;28;20196;-55
2023/05/16 05:40:54;;;;;;;29.97;22.10;;;;;;;17.16;100.00;149384.59;5050467;28;20288;-51
2023/05/16 05:43:21;;;;;;;35.77;21.17;;;;;;;17.14;100.00;149379.56;5050256;28;20210;-54
2023/05/16 05:45:48;;;;;;;29.87;20.80;;;;;;;17.21;100.00;149397.25;5050035;28;20209;-55
2023/05/16 05:48:15;;;;;;;23.03;20.13;;;;;;;16.99;100.00;149341.66;5050227;28;20262;-52
2023/05/16 05:50:42;;;;;;;25.53;19.70;;;;;;;17.08;100.00;149363.13;5050106;28;20685;-50
2023/05/16 05:53:09;;;;;;;27.37;18.83;;;;;;;16.97;100.00;149337.84;5050571;28;20724;-52
2023/05/16 05:55:36;;;;;;;24.13;18.00;;;;;;;16.78;100.00;149289.84;5050642;28;20231;-52
2023/05/16 05:58:04;;;;;;;29.20;18.53;;;;;;;16.81;100.00;149296.19;5049823;28;20228;-51
2023/05/16 06:00:31;;;;;;;23.07;17.57;;;;;;;16.85;100.00;149306.25;5050194;28;20193;-54
2023/05/16 06:02:58;;;;;;;23.77;18.23;;;;;;;16.81;100.00;149296.19;5049317;28;20196;-52
2023/05/16 06:05:25;;;;;;;28.03;18.70;;;;;;;16.76;100.00;149284.78;5049846;28;20232;-51
2023/05/16 06:07:52;;;;;;;23.07;16.13;;;;;;;16.56;100.00;149235.50;5040017;28;20244;-54
2023/05/16 06:10:19;;;;;;;21.07;15.97;;;;;;;16.41;100.00;149196.31;5030078;28;20718;-54
2023/05/16 06:12:46;;;;;;;28.77;15.40;;;;;;;16.15;100.00;149131.91;5046347;28;20708;-55
2023/05/16 06:15:14;;;;;;;21.40;17.57;;;;;;;16.18;100.00;149140.75;5049672;28;20209;-55
2023/05/16 06:17:41;;;;;;;23.03;17.57;;;;;;;16.17;100.00;149138.22;5050082;28;20307;-51
2023/05/16 06:20:09;;;;;;;24.67;17.60;;;;;;;16.24;100.00;149154.66;5050361;28;20196;-52
2023/05/16 06:22:35;;;;;;;28.33;18.87;;;;;;;16.19;100.00;149143.28;5049189;28;20318;-51
2023/05/16 06:25:03;;;;;;;22.33;18.47;;;;;;;16.18;100.00;149139.50;5049741;28;20218;-51
2023/05/16 06:27:31;;;;;;;22.57;18.80;;;;;;;16.15;100.00;149133.16;5049876;28;20668;-55
2023/05/16 06:29:58;;;;;;;24.40;19.87;;;;;;;16.12;100.00;149124.34;5049607;28;20204;-55
2023/05/16 06:32:26;;;;;;;19.03;16.87;;;;;;;16.11;100.00;149123.09;5049445;28;20254;-51
2023/05/16 06:34:53;;;;;;;24.23;17.47;;;;;;;16.13;100.00;149126.88;5048895;28;20598;-53
2023/05/16 06:37:22;;;;;;;18.90;16.90;;;;;;;16.12;100.00;149124.34;5048900;28;20235;-54
2023/05/16 06:39:49;;;;;;;27.77;18.10;;;;;;;16.06;100.00;149110.44;5031602;28;20225;-53
2023/05/16 06:42:16;;;;;;;25.50;17.60;;;;;;;16.04;100.00;149104.13;5028724;28;20287;-52
2023/05/16 06:44:43;;;;;;;18.63;16.53;;;;;;;16.08;100.00;149115.50;5029450;28;20225;-54
2023/05/16 06:47:11;;;;;;;20.57;16.87;;;;;;;16.15;100.00;149133.16;5029380;28;20300;-55
2023/05/16 06:49:39;;;;;;;21.07;17.20;;;;;;;16.22;100.00;149150.88;5048444;28;20712;-53
2023/05/16 06:52:06;;;;;;;20.83;18.23;;;;;;;16.33;100.00;149177.41;5053386;28;20220;-53
2023/05/16 06:54:33;;;;;;;18.97;16.77;;;;;;;16.40;100.00;149193.78;5053765;28;20638;-53
2023/05/16 06:57:02;;;;;;;21.17;17.37;;;;;;;16.49;100.00;149217.78;5050835;28;20233;-53
2023/05/16 06:59:29;;;;;;;22.77;16.13;;;;;;;16.57;100.00;149236.75;5052148;28;20282;-53
2023/05/16 07:01:56;;;;;;;24.57;19.03;;;;;;;16.64;100.00;149254.47;5052656;28;20232;-53
2023/05/16 07:04:23;;;;;;;24.10;18.63;;;;;;;16.70;100.00;149270.88;5053698;28;20856;-55
2023/05/16 07:06:51;;;;;;;24.03;18.00;;;;;;;16.72;100.00;149273.41;5051968;28;20224;-55
2023/05/16 07:09:18;;;;;;;25.60;19.90;;;;;;;16.82;100.00;149299.94;5049129;28;20201;-54
2023/05/16 07:11:45;;;;;;;24.80;18.87;;;;;;;16.85;100.00;149306.25;5051235;28;20199;-55
2023/05/16 07:14:12;;;;;;;22.30;18.97;;;;;;;16.89;100.00;149317.66;5051684;28;20201;-53
2023/05/16 07:16:39;;;;;;;18.57;16.70;;;;;;;16.95;100.00;149331.53;5051840;28;20227;-53
2023/05/16 07:19:07;;;;;;;21.70;16.60;;;;;;;17.07;100.00;149361.84;5051796;28;20203;-54
2023/05/16 07:21:34;;;;;;;19.30;17.30;;;;;;;17.19;100.00;149392.19;5051669;28;20201;-55
2023/05/16 07:24:02;;;;;;;18.57;16.70;;;;;;;17.16;100.00;149384.59;5051889;28;20230;-54
2023/05/16 07:26:29;;;;;;;24.40;17.10;;;;;;;17.28;100.00;149413.66;5051615;28;20191;-54
2023/05/16 07:28:57;;;;;;;20.57;17.13;;;;;;;17.53;100.00;149475.59;5051591;28;20330;-53
2023/05/16 07:31:24;;;;;;;21.93;17.10;;;;;;;17.79;100.00;149541.41;5051519;28;20189;-53
2023/05/16 07:33:51;;;;;;;19.73;15.23;;;;;;;17.75;100.00;149531.25;5051711;28;20196;-54
2023/05/16 07:36:18;;;;;;;18.42;16.42;;;;;;;18.01;100.00;149595.75;5048763;28;20203;-55
2023/05/16 07:38:45;;;;;;;17.90;15.35;;;;;;;17.86;100.00;149559.06;5051413;28;20197;-53
2023/05/16 07:41:13;;;;;;;22.38;16.00;;;;;;;17.81;100.00;149546.47;5051436;28;20205;-55
2023/05/16 07:43:40;;;;;;;21.23;17.17;;;;;;;17.73;100.00;149527.47;5051608;28;20193;-52
2023/05/16 07:46:07;;;;;;;21.63;18.30;;;;;;;17.68;100.00;149514.84;5051419;28;20281;-54
2023/05/16 07:48:34;;;;;;;20.20;18.00;;;;;;;17.89;100.00;149565.41;5051305;28;20201;-53
2023/05/16 07:51:01;;;;;;;19.00;16.83;;;;;;;18.00;100.00;149594.50;5051312;28;20196;-53
2023/05/16 07:53:28;;;;;;;23.08;19.13;;;;;;;17.84;100.00;149554.00;5051301;28;20660;-54
2023/05/16 07:55:55;;;;;;;20.25;16.40;;;;;;;17.80;100.00;149543.94;5050876;28;20275;-53
2023/05/16 07:58:23;;;;;;;23.45;17.50;;;;;;;17.98;100.00;149589.44;5050939;28;20220;-54
2023/05/16 08:00:50;;;;;;;21.55;18.10;;;;;;;18.04;100.00;149604.63;5050124;28;20224;-54
2023/05/16 08:03:17;;;;;;;22.55;17.40;;;;;;;18.10;100.00;149619.78;5048309;28;20196;-54
2023/05/16 08:05:44;;;;;;;19.95;16.92;;;;;;;18.18;100.00;149637.47;5051004;28;20197;-54
2023/05/16 08:08:11;;;;;;;28.10;21.23;;;;;;;18.23;100.00;149650.13;5050841;28;20197;-53
2023/05/16 08:10:38;;;;;;;18.13;16.30;;;;;;;18.18;100.00;149638.72;5045517;28;20263;-54
2023/05/16 08:13:05;;;;;;;23.15;18.63;;;;;;;18.27;100.00;149660.28;5050338;28;20232;-53
2023/05/16 08:15:33;;;;;;;24.40;17.38;;;;;;;18.33;100.00;149676.69;5049572;28;20286;-54
2023/05/16 08:18:00;;;;;;;19.00;17.00;;;;;;;18.29;100.00;149666.56;5050353;28;20233;-54
2023/05/16 08:20:27;;;;;;;18.85;16.85;;;;;;;18.22;100.00;149648.88;5050005;28;20259;-54
2023/05/16 08:22:55;;;;;;;21.10;17.98;;;;;;;18.19;100.00;149640.00;5050069;28;20221;-54
2023/05/16 08:25:22;;;;;;;23.63;17.30;;;;;;;18.19;100.00;149640.00;5050275;28;20212;-54
2023/05/16 08:27:50;;;;;;;23.92;18.55;;;;;;;18.27;100.00;149660.28;5050340;28;20217;-55
2023/05/16 08:30:16;;;;;;;19.75;16.40;;;;;;;18.48;100.00;149714.66;5049807;28;20224;-54
2023/05/16 08:32:45;;;;;;;23.05;16.77;;;;;;;18.64;100.00;149752.63;5050038;28;20199;-55
2023/05/16 08:35:12;;;;;;;17.90;15.98;;;;;;;18.75;100.00;149781.72;5049920;28;20200;-54
2023/05/16 08:37:39;;;;;;;20.08;16.52;;;;;;;18.70;100.00;149769.09;5048340;28;20662;-55
2023/05/16 08:40:09;;;;;;;19.08;17.13;;;;;;;18.66;100.00;149758.94;5050166;28;20192;-55
2023/05/16 08:42:36;;;;;;;19.55;16.88;;;;;;;18.55;100.00;149731.06;5048919;28;20197;-55
2023/05/16 08:45:05;;;;;;;18.60;16.80;;;;;;;18.67;100.00;149761.47;5050359;28;20657;-55
2023/05/16 08:47:33;;;;;;;18.48;16.45;;;;;;;18.70;100.00;149767.81;5050772;28;20628;-54
2023/05/16 08:50:04;;;;;;;22.88;18.23;;;;;;;18.49;100.00;149717.19;5051109;28;20676;-54
2023/05/16 08:52:32;;;;;;;21.27;16.95;;;;;;;18.61;100.00;149745.06;5047285;28;20243;-54
2023/05/16 08:55:06;;;;;;;20.13;17.25;;;;;;;18.68;100.00;149762.75;5050605;28;20227;-54
2023/05/16 08:57:34;;;;;;;20.95;16.08;;;;;;;19.06;100.00;149858.94;5050406;28;20686;-55
2023/05/16 09:00:06;;;;;;;24.33;16.20;;;;;;;19.21;100.00;149896.84;5050876;28;20319;-54
2023/05/16 09:02:33;;;;;;;16.67;15.07;;;;;;;19.42;100.00;149948.75;5050052;28;20686;-54
2023/05/16 09:05:03;;;;;;;16.38;14.98;;;;;;;19.23;100.00;149900.66;5040159;28;20336;-53
2023/05/16 09:07:30;;;;;;;18.88;15.85;;;;;;;19.26;100.00;149907.00;5049219;28;20224;-53
2023/05/16 09:09:57;;;;;;;16.90;15.10;;;;;;;19.14;100.00;149879.16;5050771;28;20308;-54
2023/05/16 09:12:24;;;;;;;19.95;16.00;;;;;;;19.31;100.00;149920.91;5050003;28;20226;-54
2023/05/16 09:14:51;;;;;;;17.08;15.40;;;;;;;19.34;100.00;149927.22;5038556;28;20280;-54
2023/05/16 09:17:18;;;;;;;17.10;15.00;;;;;;;19.62;100.00;149996.94;5049981;28;20281;-54
2023/05/16 09:19:47;;;;;;;17.25;14.05;;;;;;;19.79;100.00;150039.94;5050528;28;20232;-55
2023/05/16 09:22:15;;;;;;;16.45;14.73;;;;;;;20.07;100.00;150110.88;5050370;28;20228;-54
2023/05/16 09:24:43;;;;;;;15.88;14.38;;;;;;;20.14;100.00;150127.31;5050105;28;20225;-54
2023/05/16 09:27:11;;;;;;;15.38;13.82;;;;;;;20.29;100.00;150165.31;5030152;28;20201;-55
2023/05/16 09:29:40;;;;;;;15.93;13.85;;;;;;;20.28;100.00;150164.06;5029626;28;20240;-53
2023/05/16 09:32:13;;;;;;;14.55;13.13;;;;;;;19.96;100.00;150083.03;5030678;28;20606;-53
2023/05/16 09:34:44;;;;;;;17.15;14.55;;;;;;;19.74;100.00;150027.31;5031161;28;20729;-56
2023/05/16 09:37:11;;;;;;;25.33;14.73;;;;;;;19.59;100.00;149990.59;5030597;28;20283;-54
2023/05/16 09:39:45;;;;;;;16.08;14.68;;;;;;;19.48;100.00;149962.69;5030779;28;20197;-54
2023/05/16 09:42:13;;;;;;;19.35;16.55;;;;;;;19.36;100.00;149933.56;5030671;28;20302;-53
2023/05/16 09:44:40;;;;;;;17.90;16.08;;;;;;;19.24;100.00;149903.19;5031261;28;20223;-54
2023/05/16 09:47:07;;;;;;;18.42;16.52;;;;;;;19.28;100.00;149912.06;5049067;28;20232;-55
2023/05/16 09:49:37;;;;;;;17.58;15.88;;;;;;;19.36;100.00;149933.56;5046940;28;20231;-55
2023/05/16 09:52:05;;;;;;;18.85;16.35;;;;;;;19.40;100.00;149942.44;5049924;28;20653;-55
2023/05/16 09:54:32;;;;;;;20.35;16.92;;;;;;;19.38;100.00;149938.66;5050192;28;20284;-54
2023/05/16 09:57:01;;;;;;;17.00;15.25;;;;;;;19.50;100.00;149969.06;5049260;28;20201;-55
2023/05/16 09:59:29;;;;;;;28.63;23.75;;;;;;;19.64;100.00;150002.00;5050297;28;20387;-55
2023/05/16 10:01:58;;;;;;;19.52;17.38;;;;;;;19.73;100.00;150026.03;5049666;28;20200;-56
2023/05/16 10:04:25;;;;;;;19.67;16.33;;;;;;;19.83;100.00;150051.34;5046510;28;20208;-55
2023/05/16 10:06:54;;;;;;;22.40;18.77;;;;;;;20.00;100.00;150093.13;5049633;28;20197;-55
2023/05/16 10:09:22;;;;;;;18.75;16.88;;;;;;;20.12;100.00;150123.50;5048420;28;20203;-52
2023/05/16 10:11:51;;;;;;;18.52;16.70;;;;;;;20.16;100.00;150133.66;5046686;28;20195;-54
2023/05/16 10:14:20;;;;;;;18.15;16.50;;;;;;;20.20;100.00;150143.75;5048750;28;20188;-52
2023/05/16 10:16:48;;;;;;;20.15;17.75;;;;;;;19.98;100.00;150088.03;5048588;28;20216;-54
2023/05/16 10:19:17;;;;;;;18.48;16.70;;;;;;;20.05;100.00;150105.81;5049932;28;20229;-53
2023/05/16 10:21:58;;;;;;;19.35;17.33;;;;;;;19.95;100.00;150080.47;5036336;28;20225;-54
2023/05/16 10:24:31;;;;;;;20.33;17.65;;;;;;;19.92;100.00;150072.88;5049052;28;20224;-54
2023/05/16 10:26:58;;;;;;;22.65;17.75;;;;;;;19.79;100.00;150041.22;5048625;28;20707;-55
2023/05/16 10:29:28;;;;;;;19.25;17.38;;;;;;;19.82;100.00;150048.81;5050011;28;20197;-55
2023/05/16 10:31:55;;;;;;;20.65;18.48;;;;;;;19.76;100.00;150033.59;5048690;28;20198;-57
2023/05/16 10:34:23;;;;;;;18.70;16.92;;;;;;;19.65;100.00;150005.75;5048443;28;20189;-55
2023/05/16 10:36:51;;;;;;;22.55;18.35;;;;;;;19.79;100.00;150041.22;5046087;28;20188;-55
2023/05/16 10:39:19;;;;;;;20.67;18.55;;;;;;;19.98;100.00;150088.03;5048613;28;20752;-53
2023/05/16 10:41:46;;;;;;;20.95;18.75;;;;;;;20.20;100.00;150143.75;5048295;28;20193;-54
2023/05/16 10:44:15;;;;;;;21.15;18.88;;;;;;;20.41;100.00;150194.50;5049019;28;20278;-54
2023/05/16 10:46:44;;;;;;;21.60;18.92;;;;;;;20.41;100.00;150195.78;5048211;28;20197;-54
2023/05/16 10:49:22;;;;;;;21.25;19.02;;;;;;;20.53;100.00;150224.91;5046073;28;20193;-54
2023/05/16 10:52:04;;;;;;;20.63;18.58;;;;;;;20.84;100.00;150302.16;5045235;28;20228;-55
2023/05/16 10:54:35;;;;;;;27.00;23.30;;;;;;;21.00;100.00;150342.69;5047526;28;20284;-55
2023/05/16 10:57:10;;;;;;;22.50;20.08;;;;;;;21.16;100.00;150382.00;5047876;28;20288;-54
2023/05/16 10:59:42;;;;;;;23.58;19.08;;;;;;;21.30;100.00;150418.81;5047219;28;20225;-55
2023/05/16 11:02:25;;;;;;;21.05;18.17;;;;;;;21.33;100.00;150426.38;5047028;28;20189;-54
2023/05/16 11:04:54;;;;;;;20.58;18.42;;;;;;;21.33;100.00;150425.16;5044802;28;20189;-54
2023/05/16 11:07:23;;;;;;;23.23;18.80;;;;;;;21.26;100.00;150407.38;5046749;28;20199;-54